createdAt,value
2018-09-11T00:00:40.077Z,11.30
2018-09-11T00:03:08.955Z,12.60
2018-09-11T00:05:37.856Z,12.20
2018-09-11T00:08:06.695Z,12.97
2018-09-11T00:10:35.565Z,12.73
2018-09-11T00:13:04.451Z,11.80
2018-09-11T00:15:33.300Z,12.07
2018-09-11T00:18:02.177Z,13.00
2018-09-11T00:20:31.072Z,14.67
2018-09-11T00:23:00.312Z,14.33
2018-09-11T00:25:29.205Z,14.53
2018-09-11T00:27:58.105Z,15.37
2018-09-11T00:30:26.951Z,15.13
2018-09-11T00:32:55.795Z,15.53
2018-09-11T00:35:24.696Z,15.10
2018-09-11T00:37:53.554Z,13.87
2018-09-11T00:40:22.762Z,15.23
2018-09-11T00:42:51.630Z,15.37
2018-09-11T00:45:20.515Z,15.43
2018-09-11T00:47:49.371Z,16.23
2018-09-11T00:50:18.326Z,15.83
2018-09-11T00:52:47.161Z,15.73
2018-09-11T00:55:16.025Z,15.60
2018-09-11T00:57:44.967Z,15.73
2018-09-11T01:00:13.809Z,16.93
2018-09-11T01:02:42.654Z,16.87
2018-09-11T01:05:11.557Z,17.33
2018-09-11T01:07:40.443Z,17.43
2018-09-11T01:10:10.097Z,17.80
2018-09-11T01:12:39.096Z,17.17
2018-09-11T01:15:09.124Z,18.90
2018-09-11T01:17:38.302Z,18.20
2018-09-11T01:20:07.931Z,18.20
2018-09-11T01:22:36.758Z,18.60
2018-09-11T01:25:05.678Z,17.70
2018-09-11T01:27:34.577Z,17.07
2018-09-11T01:30:03.422Z,18.17
2018-09-11T01:32:32.255Z,18.07
2018-09-11T01:35:01.175Z,18.07
2018-09-11T01:37:30.032Z,18.70
2018-09-11T01:39:58.899Z,17.47
2018-09-11T01:42:27.794Z,18.50
2018-09-11T01:44:56.638Z,18.83
2018-09-11T01:47:25.476Z,16.73
2018-09-11T01:49:54.442Z,17.37
2018-09-11T01:52:23.284Z,17.43
2018-09-11T01:54:52.123Z,17.27
2018-09-11T01:57:21.052Z,17.90
2018-09-11T01:59:49.934Z,18.73
2018-09-11T02:02:18.816Z,17.80
2018-09-11T02:04:47.740Z,17.93
2018-09-11T02:07:16.607Z,17.53
2018-09-11T02:09:45.545Z,18.00
2018-09-11T02:12:14.429Z,18.00
2018-09-11T02:14:43.418Z,17.27
2018-09-11T02:17:12.289Z,17.97
2018-09-11T02:19:41.164Z,17.53
2018-09-11T02:22:10.021Z,16.30
2018-09-11T02:24:38.861Z,16.93
2018-09-11T02:27:07.663Z,16.57
2018-09-11T02:29:36.544Z,16.57
2018-09-11T02:32:05.388Z,15.70
2018-09-11T02:34:34.340Z,16.03
2018-09-11T02:37:03.167Z,15.97
2018-09-11T02:39:32.042Z,14.97
2018-09-11T02:42:00.941Z,15.27
2018-09-11T02:44:29.803Z,14.90
2018-09-11T02:46:58.640Z,14.67
2018-09-11T02:49:27.520Z,14.50
2018-09-11T02:51:56.460Z,14.53
2018-09-11T02:54:25.859Z,14.60
2018-09-11T02:56:54.751Z,14.47
2018-09-11T02:59:23.606Z,14.50
2018-09-11T03:01:52.476Z,15.00
2018-09-11T03:04:21.367Z,14.60
2018-09-11T03:06:50.219Z,14.20
2018-09-11T03:09:19.738Z,13.67
2018-09-11T03:11:48.639Z,15.33
2018-09-11T03:14:17.487Z,15.00
2018-09-11T03:16:46.359Z,15.67
2018-09-11T03:19:15.257Z,15.03
2018-09-11T03:21:44.100Z,15.07
2018-09-11T03:24:12.961Z,15.80
2018-09-11T03:26:41.864Z,16.17
2018-09-11T03:29:10.757Z,17.03
2018-09-11T03:31:39.608Z,17.33
2018-09-11T03:34:08.524Z,16.73
2018-09-11T03:36:37.384Z,17.00
2018-09-11T03:39:08.168Z,16.77
2018-09-11T03:41:37.113Z,17.00
2018-09-11T03:44:06.122Z,17.27
2018-09-11T03:46:35.019Z,17.37
2018-09-11T03:49:03.947Z,17.80
2018-09-11T03:51:32.810Z,17.07
2018-09-11T03:54:01.720Z,17.87
2018-09-11T03:56:30.585Z,17.20
2018-09-11T03:58:59.416Z,18.93
2018-09-11T04:01:28.363Z,17.67
2018-09-11T04:03:57.684Z,18.17
2018-09-11T04:06:26.510Z,18.63
2018-09-11T04:08:55.435Z,17.80
2018-09-11T04:11:24.307Z,18.10
2018-09-11T04:13:53.147Z,17.73
2018-09-11T04:16:22.060Z,16.97
2018-09-11T04:18:50.938Z,16.37
2018-09-11T04:21:19.822Z,17.37
2018-09-11T04:23:48.745Z,17.03
2018-09-11T04:26:17.635Z,17.47
2018-09-11T04:28:46.548Z,17.33
2018-09-11T04:31:15.534Z,16.87
2018-09-11T04:33:44.627Z,17.33
2018-09-11T04:36:13.542Z,17.10
2018-09-11T04:38:42.498Z,17.47
2018-09-11T04:41:11.368Z,18.17
2018-09-11T04:43:40.227Z,16.20
2018-09-11T04:46:11.682Z,17.60
2018-09-11T04:48:42.485Z,17.00
2018-09-11T04:51:11.365Z,18.47
2018-09-11T04:53:40.216Z,16.43
2018-09-11T04:56:09.291Z,17.27
2018-09-11T04:58:38.283Z,18.33
2018-09-11T05:01:07.357Z,15.90
2018-09-11T05:03:36.228Z,15.73
2018-09-11T05:06:05.216Z,17.60
2018-09-11T05:08:34.135Z,16.43
2018-09-11T05:11:03.198Z,16.93
2018-09-11T05:13:32.117Z,18.43
2018-09-11T05:16:01.297Z,18.53
2018-09-11T05:18:30.421Z,16.80
2018-09-11T05:20:59.343Z,18.43
2018-09-11T05:23:28.257Z,18.67
2018-09-11T05:25:57.244Z,17.67
2018-09-11T05:28:26.108Z,18.83
2018-09-11T05:30:54.977Z,17.30
2018-09-11T05:33:23.923Z,17.03
2018-09-11T05:35:52.777Z,15.57
2018-09-11T05:38:21.704Z,15.87
2018-09-11T05:40:50.627Z,14.37
2018-09-11T05:43:19.553Z,15.10
2018-09-11T05:45:48.465Z,14.43
2018-09-11T05:48:17.364Z,14.67
2018-09-11T05:50:46.277Z,14.10
2018-09-11T05:53:15.123Z,14.00
2018-09-11T05:55:43.982Z,15.03
2018-09-11T05:58:12.924Z,13.47
2018-09-11T06:00:43.134Z,14.10
2018-09-11T06:03:12.017Z,13.17
2018-09-11T06:05:40.953Z,13.40
2018-09-11T06:08:09.791Z,13.63
2018-09-11T06:10:38.740Z,13.20
2018-09-11T06:13:07.928Z,15.07
2018-09-11T06:15:36.803Z,14.60
2018-09-11T06:18:05.781Z,15.57
2018-09-11T06:20:34.887Z,15.07
2018-09-11T06:23:03.773Z,14.97
2018-09-11T06:25:55.169Z,14.00
2018-09-11T06:28:24.224Z,15.10
2018-09-11T06:31:02.104Z,14.40
2018-09-11T06:33:33.763Z,14.97
2018-09-11T06:36:02.716Z,15.53
2018-09-11T06:38:31.555Z,14.73
2018-09-11T06:41:00.536Z,15.00
2018-09-11T06:43:30.791Z,14.50
2018-09-11T06:45:59.674Z,15.40
2018-09-11T06:48:28.579Z,14.27
2018-09-11T06:50:57.449Z,15.17
2018-09-11T06:53:26.401Z,15.73
2018-09-11T06:55:55.297Z,14.90
2018-09-11T06:58:24.150Z,15.50
2018-09-11T07:00:53.111Z,15.13
2018-09-11T07:03:21.979Z,16.23
2018-09-11T07:05:51.456Z,14.60
2018-09-11T07:08:20.494Z,13.43
2018-09-11T07:10:49.350Z,14.93
2018-09-11T07:13:18.306Z,13.07
2018-09-11T07:15:47.241Z,12.57
2018-09-11T07:18:16.174Z,12.03
2018-09-11T07:20:45.037Z,12.00
2018-09-11T07:23:13.954Z,14.23
2018-09-11T07:25:42.813Z,12.23
2018-09-11T07:28:11.676Z,12.93
2018-09-11T07:30:40.650Z,11.90
2018-09-11T07:33:09.516Z,12.10
2018-09-11T07:35:38.360Z,12.30
2018-09-11T07:38:07.354Z,12.30
2018-09-11T07:40:36.320Z,11.80
2018-09-11T07:43:05.284Z,11.30
2018-09-11T07:45:34.313Z,11.57
2018-09-11T07:48:03.118Z,12.60
2018-09-11T07:50:32.017Z,18.23
2018-09-11T07:53:01.013Z,18.17
2018-09-11T07:55:29.843Z,20.53
2018-09-11T07:57:58.768Z,21.17
2018-09-11T08:00:27.751Z,18.63
2018-09-11T08:02:56.689Z,16.75
2018-09-11T08:05:25.553Z,15.88
2018-09-11T08:07:54.434Z,14.03
2018-09-11T08:10:23.364Z,13.20
2018-09-11T08:12:52.220Z,14.28
2018-09-11T08:15:21.161Z,12.00
2018-09-11T08:17:50.047Z,11.88
2018-09-11T08:20:18.909Z,12.50
2018-09-11T08:22:47.982Z,11.05
2018-09-11T08:25:16.853Z,12.35
2018-09-11T08:27:45.702Z,11.22
2018-09-11T08:30:14.640Z,11.88
2018-09-11T08:32:43.500Z,11.30
2018-09-11T08:35:12.359Z,13.18
2018-09-11T08:37:41.227Z,14.00
2018-09-11T08:40:10.077Z,11.90
2018-09-11T08:42:38.939Z,12.00
2018-09-11T08:45:08.236Z,12.03
2018-09-11T08:47:37.157Z,11.10
2018-09-11T08:50:06.308Z,10.57
2018-09-11T08:52:35.286Z,10.98
2018-09-11T08:55:04.202Z,11.63
2018-09-11T08:57:33.106Z,11.35
2018-09-11T09:00:01.998Z,10.72
2018-09-11T09:02:30.844Z,10.40
2018-09-11T09:04:59.730Z,11.50
2018-09-11T09:07:28.620Z,10.95
2018-09-11T09:09:57.553Z,10.48
2018-09-11T09:12:26.468Z,10.23
2018-09-11T09:14:56.230Z,10.57
2018-09-11T09:17:25.077Z,10.03
2018-09-11T09:19:54.035Z,10.18
2018-09-11T09:22:22.950Z,10.60
2018-09-11T09:24:51.864Z,10.90
2018-09-11T09:27:20.814Z,10.40
2018-09-11T09:29:49.751Z,11.10
2018-09-11T09:32:18.712Z,10.77
2018-09-11T09:34:47.653Z,11.53
2018-09-11T09:37:16.577Z,11.10
2018-09-11T09:39:45.425Z,10.73
2018-09-11T09:42:14.464Z,10.37
2018-09-11T09:44:43.436Z,10.33
2018-09-11T09:47:12.403Z,9.90
2018-09-11T09:49:41.349Z,9.57
2018-09-11T09:52:10.215Z,10.50
2018-09-11T09:54:39.089Z,10.10
2018-09-11T09:57:07.967Z,11.07
2018-09-11T09:59:36.835Z,10.50
2018-09-11T10:02:09.937Z,9.47
2018-09-11T10:04:38.795Z,9.73
2018-09-11T10:07:07.664Z,10.53
2018-09-11T10:09:36.560Z,11.00
2018-09-11T10:12:05.410Z,11.80
2018-09-11T10:14:34.297Z,10.07
2018-09-11T10:17:03.245Z,10.50
2018-09-11T10:19:32.095Z,10.70
2018-09-11T10:22:00.972Z,10.20
2018-09-11T10:24:29.878Z,11.18
2018-09-11T10:26:58.740Z,10.40
2018-09-11T10:29:27.676Z,11.03
2018-09-11T10:31:56.589Z,11.88
2018-09-11T10:34:25.749Z,10.53
2018-09-11T10:36:54.800Z,10.90
2018-09-11T10:39:23.766Z,11.00
2018-09-11T10:41:52.592Z,9.23
2018-09-11T10:44:21.570Z,9.70
2018-09-11T10:46:50.528Z,9.65
2018-09-11T10:49:19.414Z,8.88
2018-09-11T10:51:48.313Z,9.48
2018-09-11T10:54:17.245Z,10.28
2018-09-11T10:56:46.077Z,10.20
2018-09-11T10:59:14.961Z,10.03
2018-09-11T11:01:43.880Z,9.65
2018-09-11T11:04:12.825Z,9.48
2018-09-11T11:06:41.697Z,8.95
2018-09-11T11:09:11.548Z,9.08
2018-09-11T11:11:40.580Z,9.23
2018-09-11T11:14:10.035Z,10.03
2018-09-11T11:16:38.878Z,8.60
2018-09-11T11:19:07.753Z,8.23
2018-09-11T11:21:36.752Z,7.17
2018-09-11T11:24:05.593Z,7.65
2018-09-11T11:26:34.441Z,7.15
2018-09-11T11:29:03.420Z,5.87
2018-09-11T11:31:32.275Z,6.33
2018-09-11T11:34:01.102Z,5.97
2018-09-11T11:36:30.135Z,6.05
2018-09-11T11:38:58.997Z,6.12
2018-09-11T11:41:27.853Z,5.40
2018-09-11T11:43:56.770Z,6.47
2018-09-11T11:46:25.588Z,6.08
2018-09-11T11:48:54.451Z,6.05
2018-09-11T11:51:23.386Z,5.80
2018-09-11T11:53:52.278Z,6.65
2018-09-11T11:56:21.234Z,7.03
2018-09-11T11:58:50.233Z,6.22
2018-09-11T12:01:19.133Z,6.03
2018-09-11T12:03:47.989Z,6.25
2018-09-11T12:06:16.884Z,6.65
2018-09-11T12:08:45.725Z,7.08
2018-09-11T12:11:14.565Z,6.15
2018-09-11T12:13:43.583Z,5.80
2018-09-11T12:16:12.572Z,6.22
2018-09-11T12:18:41.372Z,5.65
2018-09-11T12:21:10.235Z,6.53
2018-09-11T12:23:39.073Z,6.03
2018-09-11T12:26:07.916Z,6.15
2018-09-11T12:28:36.908Z,6.17
2018-09-11T12:31:05.833Z,6.05
2018-09-11T12:33:34.677Z,6.05
2018-09-11T12:36:03.696Z,5.92
2018-09-11T12:38:32.561Z,4.78
2018-09-11T12:41:01.465Z,4.97
2018-09-11T12:43:30.388Z,4.55
2018-09-11T12:45:59.420Z,4.25
2018-09-11T12:48:28.296Z,3.30
2018-09-11T12:50:57.128Z,3.55
2018-09-11T12:53:25.959Z,3.62
2018-09-11T12:55:54.919Z,3.87
2018-09-11T12:58:23.792Z,3.42
2018-09-11T13:00:52.828Z,3.70
2018-09-11T13:03:21.843Z,3.30
2018-09-11T13:05:50.802Z,3.80
2018-09-11T13:08:19.645Z,3.45
2018-09-11T13:10:48.522Z,3.12
2018-09-11T13:13:17.478Z,3.27
2018-09-11T13:15:46.358Z,3.33
2018-09-11T13:18:15.200Z,3.45
2018-09-11T13:20:44.125Z,3.25
2018-09-11T13:23:12.974Z,3.50
2018-09-11T13:25:41.816Z,4.15
2018-09-11T13:28:10.701Z,3.12
2018-09-11T13:30:39.593Z,3.50
2018-09-11T13:33:08.472Z,3.85
2018-09-11T13:35:37.414Z,3.40
2018-09-11T13:38:06.573Z,3.42
2018-09-11T13:40:35.546Z,3.85
2018-09-11T13:43:05.245Z,3.33
2018-09-11T13:45:34.252Z,3.10
2018-09-11T13:48:03.123Z,2.77
2018-09-11T13:50:32.049Z,3.10
2018-09-11T13:53:00.999Z,3.33
2018-09-11T13:55:30.029Z,3.75
2018-09-11T13:57:58.963Z,3.47
2018-09-11T14:00:27.840Z,3.15
2018-09-11T14:02:56.830Z,3.75
2018-09-11T14:05:25.673Z,3.77
2018-09-11T14:07:55.183Z,4.17
2018-09-11T14:10:24.056Z,3.90
2018-09-11T14:12:53.078Z,3.80
2018-09-11T14:15:21.956Z,3.65
2018-09-11T14:17:50.828Z,3.75
2018-09-11T14:20:19.700Z,4.05
2018-09-11T14:22:48.636Z,3.67
2018-09-11T14:25:17.480Z,3.70
2018-09-11T14:27:46.321Z,3.95
2018-09-11T14:30:15.220Z,3.90
2018-09-11T14:32:44.051Z,3.95
2018-09-11T14:35:13.140Z,3.45
2018-09-11T14:37:42.135Z,3.55
2018-09-11T14:40:11.093Z,4.00
2018-09-11T14:42:40.023Z,3.58
2018-09-11T14:45:09.050Z,4.17
2018-09-11T14:47:41.932Z,3.45
2018-09-11T14:50:11.568Z,3.92
2018-09-11T14:52:40.525Z,3.65
2018-09-11T14:55:10.164Z,3.50
2018-09-11T14:57:39.031Z,3.35
2018-09-11T15:00:08.295Z,3.17
2018-09-11T15:02:37.208Z,3.30
2018-09-11T15:05:06.056Z,2.85
2018-09-11T15:07:35.016Z,3.67
2018-09-11T15:10:04.008Z,3.33
2018-09-11T15:12:32.920Z,3.02
2018-09-11T15:15:01.863Z,3.45
2018-09-11T15:17:30.740Z,3.22
2018-09-11T15:19:59.837Z,3.25
2018-09-11T15:22:28.919Z,3.33
2018-09-11T15:24:58.752Z,3.27
2018-09-11T15:27:30.087Z,3.23
2018-09-11T15:29:59.677Z,3.30
2018-09-11T15:32:28.875Z,2.80
2018-09-11T15:34:58.095Z,3.13
2018-09-11T15:37:27.102Z,3.30
2018-09-11T15:39:57.109Z,3.10
2018-09-11T15:42:26.090Z,3.17
2018-09-11T15:44:55.084Z,2.97
2018-09-11T15:47:24.050Z,3.53
2018-09-11T15:49:55.195Z,3.13
2018-09-11T15:52:24.114Z,3.03
2018-09-11T15:54:53.239Z,3.40
2018-09-11T15:57:23.088Z,3.13
2018-09-11T15:59:53.370Z,3.40
2018-09-11T16:02:23.037Z,3.80
2018-09-11T16:04:52.701Z,4.40
2018-09-11T16:07:21.714Z,4.60
2018-09-11T16:09:50.598Z,4.20
2018-09-11T16:12:20.360Z,4.30
2018-09-11T16:14:49.345Z,4.03
2018-09-11T16:17:18.308Z,4.20
2018-09-11T16:19:47.416Z,3.37
2018-09-11T16:22:16.370Z,3.27
2018-09-11T16:24:46.198Z,3.00
2018-09-11T16:27:15.081Z,3.10
2018-09-11T16:29:43.987Z,3.60
2018-09-11T16:32:12.985Z,3.30
2018-09-11T16:34:41.936Z,3.53
2018-09-11T16:37:10.821Z,2.60
2018-09-11T16:39:39.858Z,5.27
2018-09-11T16:42:08.848Z,5.47
2018-09-11T16:44:37.732Z,4.57
2018-09-11T16:47:06.846Z,4.10
2018-09-11T16:49:35.820Z,4.17
2018-09-11T16:52:04.793Z,3.60
2018-09-11T16:54:33.666Z,3.60
2018-09-11T16:57:02.730Z,3.50
2018-09-11T16:59:31.627Z,3.93
2018-09-11T17:02:00.881Z,3.20
2018-09-11T17:04:29.778Z,3.93
2018-09-11T17:06:58.724Z,3.33
2018-09-11T17:09:27.870Z,3.77
2018-09-11T17:11:57.472Z,4.00
2018-09-11T17:14:26.547Z,5.07
2018-09-11T17:16:55.420Z,4.33
2018-09-11T17:19:25.948Z,3.90
2018-09-11T17:21:55.066Z,3.97
2018-09-11T17:24:24.401Z,4.07
2018-09-11T17:26:53.609Z,4.90
2018-09-11T17:29:23.679Z,5.00
2018-09-11T17:31:53.115Z,4.67
2018-09-11T17:34:22.451Z,4.70
2018-09-11T17:36:51.718Z,4.30
2018-09-11T17:39:21.185Z,3.93
2018-09-11T17:41:50.207Z,4.10
2018-09-11T17:44:19.663Z,4.80
2018-09-11T17:46:48.861Z,4.90
2018-09-11T17:49:18.142Z,6.10
2018-09-11T17:51:47.091Z,5.87
2018-09-11T17:54:16.366Z,5.60
2018-09-11T17:56:46.692Z,5.40
2018-09-11T17:59:15.774Z,5.50
2018-09-11T18:01:44.868Z,8.77
2018-09-11T18:04:13.867Z,14.57
2018-09-11T18:06:42.855Z,15.30
2018-09-11T18:09:11.912Z,16.20
2018-09-11T18:11:40.820Z,16.77
2018-09-11T18:14:09.749Z,15.83
2018-09-11T18:16:38.770Z,14.87
2018-09-11T18:19:07.685Z,12.53
2018-09-11T18:21:36.703Z,10.70
2018-09-11T18:24:05.708Z,9.83
2018-09-11T18:26:35.008Z,9.03
2018-09-11T18:29:04.029Z,9.57
2018-09-11T18:31:33.134Z,7.87
2018-09-11T18:34:02.197Z,7.60
2018-09-11T18:36:32.069Z,7.50
2018-09-11T18:39:01.412Z,7.67
2018-09-11T18:41:30.351Z,5.93
2018-09-11T18:43:59.303Z,5.50
2018-09-11T18:46:28.341Z,5.07
2018-09-11T18:48:58.632Z,5.67
2018-09-11T18:51:28.035Z,5.17
2018-09-11T18:53:57.131Z,5.40
2018-09-11T18:56:26.738Z,5.50
2018-09-11T18:58:55.864Z,6.07
2018-09-11T19:01:28.103Z,5.33
2018-09-11T19:04:45.968Z,6.30
2018-09-11T19:07:15.726Z,6.00
2018-09-11T19:09:44.764Z,5.17
2018-09-11T19:12:13.877Z,5.27
2018-09-11T19:14:42.941Z,4.90
2018-09-11T19:17:11.900Z,4.23
2018-09-11T19:19:40.768Z,4.53
2018-09-11T19:22:09.634Z,4.93
2018-09-11T19:24:38.576Z,4.63
2018-09-11T19:27:07.530Z,4.27
2018-09-11T19:29:36.436Z,4.20
2018-09-11T19:32:05.420Z,4.10
2018-09-11T19:34:34.469Z,4.27
2018-09-11T19:37:03.503Z,3.83
2018-09-11T19:39:32.389Z,4.60
2018-09-11T19:42:01.343Z,4.13
2018-09-11T19:44:30.216Z,4.90
2018-09-11T19:46:59.055Z,4.27
2018-09-11T19:49:27.980Z,4.47
2018-09-11T19:51:56.863Z,4.17
2018-09-11T19:54:25.724Z,4.10
2018-09-11T19:56:54.625Z,4.80
2018-09-11T19:59:23.468Z,4.67
2018-09-11T20:01:52.339Z,4.73
2018-09-11T20:04:21.315Z,4.80
2018-09-11T20:06:50.385Z,4.83
2018-09-11T20:09:19.425Z,5.07
2018-09-11T20:11:48.326Z,4.63
2018-09-11T20:14:17.466Z,4.90
2018-09-11T20:16:46.326Z,5.73
2018-09-11T20:19:15.210Z,6.17
2018-09-11T20:21:44.224Z,5.87
2018-09-11T20:24:13.319Z,5.57
2018-09-11T20:26:42.184Z,5.00
2018-09-11T20:29:11.535Z,5.50
2018-09-11T20:31:40.413Z,5.70
2018-09-11T20:34:09.260Z,5.20
2018-09-11T20:36:38.205Z,5.13
2018-09-11T20:39:09.849Z,4.80
2018-09-11T20:41:38.819Z,4.60
2018-09-11T20:44:08.328Z,4.17
2018-09-11T20:46:37.220Z,4.13
2018-09-11T20:49:06.163Z,4.40
2018-09-11T20:51:35.079Z,4.27
2018-09-11T20:54:03.951Z,5.17
2018-09-11T20:56:32.811Z,4.63
2018-09-11T20:59:01.753Z,5.40
2018-09-11T21:01:30.748Z,4.83
2018-09-11T21:03:59.584Z,4.63
2018-09-11T21:06:28.624Z,5.13
2018-09-11T21:08:57.663Z,5.27
2018-09-11T21:11:26.582Z,5.17
2018-09-11T21:13:55.533Z,4.90
2018-09-11T21:16:24.462Z,5.20
2018-09-11T21:18:55.224Z,5.40
2018-09-11T21:21:24.118Z,5.30
2018-09-11T21:23:53.145Z,4.73
2018-09-11T21:26:22.110Z,5.30
2018-09-11T21:28:51.430Z,5.97
2018-09-11T21:31:20.385Z,5.53
2018-09-11T21:33:49.332Z,5.43
2018-09-11T21:36:18.167Z,4.90
2018-09-11T21:38:47.099Z,5.80
2018-09-11T21:41:16.013Z,5.37
2018-09-11T21:43:44.980Z,5.60
2018-09-11T21:46:13.823Z,5.90
2018-09-11T21:48:42.792Z,5.87
2018-09-11T21:51:11.648Z,5.80
2018-09-11T21:53:40.474Z,6.17
2018-09-11T21:56:09.373Z,6.13
2018-09-11T21:58:38.213Z,6.23
2018-09-11T22:01:12.435Z,5.53
2018-09-11T22:03:41.263Z,6.30
2018-09-11T22:06:10.088Z,6.23
2018-09-11T22:08:39.075Z,6.50
2018-09-11T22:11:07.947Z,5.93
2018-09-11T22:13:36.776Z,7.00
2018-09-11T22:16:05.656Z,6.80
2018-09-11T22:18:34.520Z,5.90
2018-09-11T22:21:03.352Z,6.07
2018-09-11T22:23:32.267Z,6.70
2018-09-11T22:26:01.105Z,6.30
2018-09-11T22:28:29.951Z,5.60
2018-09-11T22:30:58.849Z,7.00
2018-09-11T22:33:27.814Z,6.43
2018-09-11T22:35:56.679Z,6.33
2018-09-11T22:38:25.565Z,6.13
2018-09-11T22:40:54.403Z,6.67
2018-09-11T22:43:23.275Z,6.60
2018-09-11T22:45:52.309Z,5.73
2018-09-11T22:48:21.167Z,6.00
2018-09-11T22:50:50.128Z,6.40
2018-09-11T22:53:19.044Z,6.03
2018-09-11T22:55:47.914Z,6.50
2018-09-11T22:58:16.756Z,6.33
2018-09-11T23:00:45.636Z,6.77
2018-09-11T23:03:14.478Z,6.23
2018-09-11T23:05:43.354Z,6.63
2018-09-11T23:08:12.785Z,6.37
2018-09-11T23:10:41.621Z,6.10
2018-09-11T23:13:10.468Z,6.30
2018-09-11T23:15:39.364Z,6.67
2018-09-11T23:18:08.300Z,6.63
2018-09-11T23:20:37.144Z,6.13
2018-09-11T23:23:06.035Z,6.23
2018-09-11T23:25:34.903Z,6.97
2018-09-11T23:28:03.764Z,6.33
2018-09-11T23:30:33.314Z,6.83
2018-09-11T23:33:02.135Z,6.87
2018-09-11T23:35:30.996Z,6.37
2018-09-11T23:37:59.893Z,6.67
2018-09-11T23:40:28.730Z,7.20
2018-09-11T23:42:57.590Z,6.30
2018-09-11T23:45:26.492Z,6.83
2018-09-11T23:47:55.435Z,6.57
2018-09-11T23:50:24.278Z,6.47
2018-09-11T23:52:53.263Z,7.07
2018-09-11T23:55:22.125Z,6.97
2018-09-11T23:57:50.969Z,6.60
